sensor_id;sensor_type;location;lat;lon;timestamp;P1;durP1;ratioP1;P2;durP2;ratioP2
13327;SDS011;6733;51.044;3.746;2023-04-24T00:00:57;19.07;;;13.70;;
13327;SDS011;6733;51.044;3.746;2023-04-24T00:03:24;19.07;;;13.17;;
13327;SDS011;6733;51.044;3.746;2023-04-24T00:05:50;20.63;;;14.13;;
13327;SDS011;6733;51.044;3.746;2023-04-24T00:08:17;19.13;;;13.60;;
13327;SDS011;6733;51.044;3.746;2023-04-24T00:10:44;19.20;;;13.00;;
13327;SDS011;6733;51.044;3.746;2023-04-24T00:13:10;20.60;;;14.03;;
13327;SDS011;6733;51.044;3.746;2023-04-24T00:15:36;23.13;;;14.40;;
13327;SDS011;6733;51.044;3.746;2023-04-24T00:18:02;14.37;;;12.77;;
13327;SDS011;6733;51.044;3.746;2023-04-24T00:20:29;18.30;;;12.70;;
13327;SDS011;6733;51.044;3.746;2023-04-24T00:22:57;18.40;;;12.67;;
13327;SDS011;6733;51.044;3.746;2023-04-24T00:25:24;14.60;;;11.67;;
13327;SDS011;6733;51.044;3.746;2023-04-24T00:27:50;15.13;;;12.50;;
13327;SDS011;6733;51.044;3.746;2023-04-24T00:30:17;15.83;;;12.17;;
13327;SDS011;6733;51.044;3.746;2023-04-24T00:32:43;13.90;;;11.87;;
13327;SDS011;6733;51.044;3.746;2023-04-24T00:35:09;14.10;;;11.93;;
13327;SDS011;6733;51.044;3.746;2023-04-24T00:37:35;12.63;;;11.00;;
13327;SDS011;6733;51.044;3.746;2023-04-24T00:40:02;12.93;;;10.50;;
13327;SDS011;6733;51.044;3.746;2023-04-24T00:42:28;11.77;;;10.57;;
13327;SDS011;6733;51.044;3.746;2023-04-24T00:44:56;12.17;;;10.97;;
13327;SDS011;6733;51.044;3.746;2023-04-24T00:47:22;12.10;;;10.40;;
13327;SDS011;6733;51.044;3.746;2023-04-24T00:49:49;10.67;;;9.57;;
13327;SDS011;6733;51.044;3.746;2023-04-24T00:52:15;9.77;;;8.87;;
13327;SDS011;6733;51.044;3.746;2023-04-24T00:54:43;9.70;;;8.67;;
13327;SDS011;6733;51.044;3.746;2023-04-24T00:57:13;9.20;;;8.30;;
13327;SDS011;6733;51.044;3.746;2023-04-24T00:59:43;10.60;;;9.47;;
13327;SDS011;6733;51.044;3.746;2023-04-24T01:02:10;10.67;;;9.07;;
13327;SDS011;6733;51.044;3.746;2023-04-24T01:04:37;10.33;;;8.87;;
13327;SDS011;6733;51.044;3.746;2023-04-24T01:07:03;9.90;;;8.87;;
13327;SDS011;6733;51.044;3.746;2023-04-24T01:09:40;11.00;;;8.90;;
13327;SDS011;6733;51.044;3.746;2023-04-24T01:12:09;10.00;;;8.87;;
13327;SDS011;6733;51.044;3.746;2023-04-24T01:14:36;12.50;;;9.97;;
13327;SDS011;6733;51.044;3.746;2023-04-24T01:17:02;11.13;;;8.70;;
13327;SDS011;6733;51.044;3.746;2023-04-24T01:19:29;9.60;;;8.47;;
13327;SDS011;6733;51.044;3.746;2023-04-24T01:21:56;10.90;;;8.90;;
13327;SDS011;6733;51.044;3.746;2023-04-24T01:24:24;10.27;;;9.27;;
13327;SDS011;6733;51.044;3.746;2023-04-24T01:26:50;10.83;;;9.17;;
13327;SDS011;6733;51.044;3.746;2023-04-24T01:29:17;10.90;;;8.60;;
13327;SDS011;6733;51.044;3.746;2023-04-24T01:31:43;10.97;;;8.83;;
13327;SDS011;6733;51.044;3.746;2023-04-24T01:34:09;9.40;;;8.53;;
13327;SDS011;6733;51.044;3.746;2023-04-24T01:36:36;10.13;;;9.13;;
13327;SDS011;6733;51.044;3.746;2023-04-24T01:39:03;12.17;;;9.20;;
13327;SDS011;6733;51.044;3.746;2023-04-24T01:41:32;10.73;;;9.73;;
13327;SDS011;6733;51.044;3.746;2023-04-24T01:43:59;10.37;;;9.37;;
13327;SDS011;6733;51.044;3.746;2023-04-24T01:46:25;11.27;;;10.27;;
13327;SDS011;6733;51.044;3.746;2023-04-24T01:48:52;11.43;;;10.33;;
13327;SDS011;6733;51.044;3.746;2023-04-24T01:51:18;11.77;;;10.63;;
13327;SDS011;6733;51.044;3.746;2023-04-24T01:53:44;11.43;;;10.33;;
13327;SDS011;6733;51.044;3.746;2023-04-24T01:56:11;11.43;;;10.33;;
13327;SDS011;6733;51.044;3.746;2023-04-24T01:58:37;12.60;;;11.30;;
13327;SDS011;6733;51.044;3.746;2023-04-24T02:01:03;12.77;;;11.50;;
13327;SDS011;6733;51.044;3.746;2023-04-24T02:03:32;13.77;;;11.90;;
13327;SDS011;6733;51.044;3.746;2023-04-24T02:05:58;13.10;;;11.80;;
13327;SDS011;6733;51.044;3.746;2023-04-24T02:08:24;12.80;;;11.50;;
13327;SDS011;6733;51.044;3.746;2023-04-24T02:10:51;13.63;;;12.43;;
13327;SDS011;6733;51.044;3.746;2023-04-24T02:13:17;15.60;;;12.40;;
13327;SDS011;6733;51.044;3.746;2023-04-24T02:15:43;12.37;;;11.20;;
13327;SDS011;6733;51.044;3.746;2023-04-24T02:18:09;13.80;;;12.30;;
13327;SDS011;6733;51.044;3.746;2023-04-24T02:20:36;14.27;;;12.97;;
13327;SDS011;6733;51.044;3.746;2023-04-24T02:23:03;12.47;;;11.27;;
13327;SDS011;6733;51.044;3.746;2023-04-24T02:25:29;13.73;;;12.27;;
13327;SDS011;6733;51.044;3.746;2023-04-24T02:27:55;14.23;;;12.93;;
13327;SDS011;6733;51.044;3.746;2023-04-24T02:30:21;13.53;;;12.23;;
13327;SDS011;6733;51.044;3.746;2023-04-24T02:52:32;12.80;;;11.50;;
13327;SDS011;6733;51.044;3.746;2023-04-24T02:54:58;14.00;;;11.47;;
13327;SDS011;6733;51.044;3.746;2023-04-24T02:57:24;10.53;;;8.87;;
13327;SDS011;6733;51.044;3.746;2023-04-24T02:59:50;10.13;;;7.20;;
13327;SDS011;6733;51.044;3.746;2023-04-24T03:02:16;8.33;;;6.63;;
13327;SDS011;6733;51.044;3.746;2023-04-24T03:04:42;6.53;;;5.43;;
13327;SDS011;6733;51.044;3.746;2023-04-24T03:07:09;7.47;;;5.40;;
13327;SDS011;6733;51.044;3.746;2023-04-24T03:09:35;7.83;;;5.57;;
13327;SDS011;6733;51.044;3.746;2023-04-24T03:12:01;8.67;;;4.80;;
13327;SDS011;6733;51.044;3.746;2023-04-24T03:14:27;8.70;;;5.23;;
13327;SDS011;6733;51.044;3.746;2023-04-24T03:16:56;8.80;;;5.63;;
13327;SDS011;6733;51.044;3.746;2023-04-24T03:19:22;10.80;;;5.53;;
13327;SDS011;6733;51.044;3.746;2023-04-24T03:21:49;10.73;;;5.03;;
13327;SDS011;6733;51.044;3.746;2023-04-24T03:24:15;11.77;;;6.03;;
13327;SDS011;6733;51.044;3.746;2023-04-24T03:26:41;11.73;;;6.30;;
13327;SDS011;6733;51.044;3.746;2023-04-24T03:29:07;8.87;;;5.63;;
13327;SDS011;6733;51.044;3.746;2023-04-24T03:31:34;10.80;;;7.37;;
13327;SDS011;6733;51.044;3.746;2023-04-24T03:34:00;12.03;;;7.70;;
13327;SDS011;6733;51.044;3.746;2023-04-24T03:36:26;12.03;;;8.77;;
13327;SDS011;6733;51.044;3.746;2023-04-24T03:38:53;12.80;;;8.57;;
13327;SDS011;6733;51.044;3.746;2023-04-24T03:41:19;11.47;;;8.20;;
13327;SDS011;6733;51.044;3.746;2023-04-24T03:43:45;11.53;;;8.97;;
13327;SDS011;6733;51.044;3.746;2023-04-24T03:46:11;12.10;;;8.90;;
13327;SDS011;6733;51.044;3.746;2023-04-24T03:48:38;15.37;;;9.60;;
13327;SDS011;6733;51.044;3.746;2023-04-24T03:51:04;13.57;;;9.73;;
13327;SDS011;6733;51.044;3.746;2023-04-24T03:53:30;11.73;;;9.37;;
13327;SDS011;6733;51.044;3.746;2023-04-24T03:55:56;14.53;;;10.93;;
13327;SDS011;6733;51.044;3.746;2023-04-24T03:58:23;15.53;;;11.30;;
13327;SDS011;6733;51.044;3.746;2023-04-24T04:00:49;18.20;;;12.13;;
13327;SDS011;6733;51.044;3.746;2023-04-24T04:03:15;15.67;;;11.60;;
13327;SDS011;6733;51.044;3.746;2023-04-24T04:05:42;15.20;;;11.27;;
13327;SDS011;6733;51.044;3.746;2023-04-24T04:08:08;22.70;;;12.87;;
13327;SDS011;6733;51.044;3.746;2023-04-24T04:10:34;18.33;;;12.23;;
13327;SDS011;6733;51.044;3.746;2023-04-24T04:13:00;17.00;;;11.20;;
13327;SDS011;6733;51.044;3.746;2023-04-24T04:15:27;20.47;;;12.67;;
13327;SDS011;6733;51.044;3.746;2023-04-24T04:17:53;14.30;;;10.80;;
13327;SDS011;6733;51.044;3.746;2023-04-24T04:20:19;14.37;;;11.37;;
13327;SDS011;6733;51.044;3.746;2023-04-24T04:22:45;15.87;;;11.17;;
13327;SDS011;6733;51.044;3.746;2023-04-24T04:25:11;17.90;;;10.77;;
13327;SDS011;6733;51.044;3.746;2023-04-24T04:27:39;18.47;;;11.53;;
13327;SDS011;6733;51.044;3.746;2023-04-24T04:30:07;15.67;;;10.90;;
13327;SDS011;6733;51.044;3.746;2023-04-24T04:32:35;15.43;;;10.53;;
13327;SDS011;6733;51.044;3.746;2023-04-24T04:35:01;11.73;;;10.53;;
13327;SDS011;6733;51.044;3.746;2023-04-24T04:37:29;15.47;;;10.43;;
13327;SDS011;6733;51.044;3.746;2023-04-24T04:39:55;16.67;;;10.13;;
13327;SDS011;6733;51.044;3.746;2023-04-24T04:42:23;10.93;;;9.83;;
13327;SDS011;6733;51.044;3.746;2023-04-24T04:44:50;16.20;;;9.93;;
13327;SDS011;6733;51.044;3.746;2023-04-24T04:47:17;15.20;;;10.13;;
13327;SDS011;6733;51.044;3.746;2023-04-24T04:49:43;12.67;;;9.53;;
13327;SDS011;6733;51.044;3.746;2023-04-24T04:52:09;11.43;;;8.90;;
13327;SDS011;6733;51.044;3.746;2023-04-24T04:54:35;12.97;;;9.43;;
13327;SDS011;6733;51.044;3.746;2023-04-24T04:57:02;12.00;;;8.97;;
13327;SDS011;6733;51.044;3.746;2023-04-24T04:59:29;10.40;;;9.03;;
13327;SDS011;6733;51.044;3.746;2023-04-24T05:01:55;15.23;;;9.03;;
13327;SDS011;6733;51.044;3.746;2023-04-24T05:04:21;15.93;;;9.57;;
13327;SDS011;6733;51.044;3.746;2023-04-24T05:06:47;17.10;;;10.47;;
13327;SDS011;6733;51.044;3.746;2023-04-24T05:09:14;11.93;;;9.30;;
13327;SDS011;6733;51.044;3.746;2023-04-24T05:11:40;14.40;;;10.67;;
13327;SDS011;6733;51.044;3.746;2023-04-24T05:14:06;15.30;;;9.87;;
13327;SDS011;6733;51.044;3.746;2023-04-24T05:16:33;16.20;;;10.67;;
13327;SDS011;6733;51.044;3.746;2023-04-24T05:18:59;15.50;;;11.13;;
13327;SDS011;6733;51.044;3.746;2023-04-24T05:21:25;11.87;;;10.40;;
13327;SDS011;6733;51.044;3.746;2023-04-24T05:23:52;15.00;;;10.17;;
13327;SDS011;6733;51.044;3.746;2023-04-24T05:26:18;16.93;;;11.03;;
13327;SDS011;6733;51.044;3.746;2023-04-24T05:28:44;15.87;;;10.13;;
13327;SDS011;6733;51.044;3.746;2023-04-24T05:31:11;14.67;;;11.07;;
13327;SDS011;6733;51.044;3.746;2023-04-24T05:33:37;18.70;;;10.50;;
13327;SDS011;6733;51.044;3.746;2023-04-24T05:36:04;13.70;;;11.37;;
13327;SDS011;6733;51.044;3.746;2023-04-24T05:38:32;16.27;;;11.33;;
13327;SDS011;6733;51.044;3.746;2023-04-24T05:40:58;16.63;;;11.90;;
13327;SDS011;6733;51.044;3.746;2023-04-24T05:43:24;18.63;;;11.43;;
13327;SDS011;6733;51.044;3.746;2023-04-24T05:45:50;21.67;;;12.80;;
13327;SDS011;6733;51.044;3.746;2023-04-24T05:48:17;17.87;;;11.93;;
13327;SDS011;6733;51.044;3.746;2023-04-24T05:50:43;17.00;;;11.73;;
13327;SDS011;6733;51.044;3.746;2023-04-24T05:53:09;16.87;;;11.93;;
13327;SDS011;6733;51.044;3.746;2023-04-24T05:55:36;17.73;;;12.93;;
13327;SDS011;6733;51.044;3.746;2023-04-24T05:58:02;16.33;;;12.73;;
13327;SDS011;6733;51.044;3.746;2023-04-24T06:00:28;22.17;;;12.97;;
13327;SDS011;6733;51.044;3.746;2023-04-24T06:02:55;23.93;;;13.87;;
13327;SDS011;6733;51.044;3.746;2023-04-24T06:05:21;26.50;;;12.97;;
13327;SDS011;6733;51.044;3.746;2023-04-24T06:07:47;18.60;;;13.93;;
13327;SDS011;6733;51.044;3.746;2023-04-24T06:10:14;20.10;;;13.73;;
13327;SDS011;6733;51.044;3.746;2023-04-24T06:12:40;22.57;;;13.93;;
13327;SDS011;6733;51.044;3.746;2023-04-24T06:15:07;19.97;;;14.13;;
13327;SDS011;6733;51.044;3.746;2023-04-24T06:17:33;19.50;;;13.53;;
13327;SDS011;6733;51.044;3.746;2023-04-24T06:19:59;22.70;;;14.30;;
13327;SDS011;6733;51.044;3.746;2023-04-24T06:22:26;23.47;;;13.63;;
13327;SDS011;6733;51.044;3.746;2023-04-24T06:24:52;19.60;;;13.77;;
13327;SDS011;6733;51.044;3.746;2023-04-24T06:27:18;19.97;;;14.07;;
13327;SDS011;6733;51.044;3.746;2023-04-24T06:29:44;27.27;;;15.80;;
13327;SDS011;6733;51.044;3.746;2023-04-24T06:32:10;21.87;;;13.87;;
13327;SDS011;6733;51.044;3.746;2023-04-24T06:34:37;20.93;;;12.47;;
13327;SDS011;6733;51.044;3.746;2023-04-24T06:37:03;23.37;;;13.60;;
13327;SDS011;6733;51.044;3.746;2023-04-24T06:39:29;19.13;;;12.37;;
13327;SDS011;6733;51.044;3.746;2023-04-24T06:41:55;21.60;;;12.03;;
13327;SDS011;6733;51.044;3.746;2023-04-24T06:44:21;19.47;;;12.23;;
13327;SDS011;6733;51.044;3.746;2023-04-24T06:46:47;20.93;;;11.00;;
13327;SDS011;6733;51.044;3.746;2023-04-24T06:49:14;17.27;;;9.77;;
13327;SDS011;6733;51.044;3.746;2023-04-24T06:51:41;16.10;;;9.57;;
13327;SDS011;6733;51.044;3.746;2023-04-24T06:54:08;18.53;;;10.03;;
13327;SDS011;6733;51.044;3.746;2023-04-24T06:56:34;14.47;;;10.37;;
13327;SDS011;6733;51.044;3.746;2023-04-24T06:59:00;11.53;;;8.93;;
13327;SDS011;6733;51.044;3.746;2023-04-24T07:01:26;14.53;;;10.37;;
13327;SDS011;6733;51.044;3.746;2023-04-24T07:03:52;17.93;;;10.80;;
13327;SDS011;6733;51.044;3.746;2023-04-24T07:06:18;22.13;;;10.33;;
13327;SDS011;6733;51.044;3.746;2023-04-24T07:08:48;13.73;;;10.10;;
13327;SDS011;6733;51.044;3.746;2023-04-24T07:11:14;21.50;;;10.87;;
13327;SDS011;6733;51.044;3.746;2023-04-24T07:13:40;21.20;;;10.50;;
13327;SDS011;6733;51.044;3.746;2023-04-24T07:16:07;19.73;;;10.27;;
13327;SDS011;6733;51.044;3.746;2023-04-24T07:18:34;13.67;;;9.07;;
13327;SDS011;6733;51.044;3.746;2023-04-24T07:21:00;19.30;;;8.33;;
13327;SDS011;6733;51.044;3.746;2023-04-24T07:23:26;15.67;;;8.33;;
13327;SDS011;6733;51.044;3.746;2023-04-24T07:25:53;18.57;;;8.07;;
13327;SDS011;6733;51.044;3.746;2023-04-24T07:28:19;14.00;;;7.97;;
13327;SDS011;6733;51.044;3.746;2023-04-24T07:30:45;20.80;;;8.67;;
13327;SDS011;6733;51.044;3.746;2023-04-24T07:33:12;14.10;;;7.90;;
13327;SDS011;6733;51.044;3.746;2023-04-24T07:35:38;12.33;;;8.03;;
13327;SDS011;6733;51.044;3.746;2023-04-24T07:38:04;22.67;;;8.43;;
13327;SDS011;6733;51.044;3.746;2023-04-24T07:40:31;19.57;;;8.67;;
13327;SDS011;6733;51.044;3.746;2023-04-24T07:42:57;17.17;;;8.50;;
13327;SDS011;6733;51.044;3.746;2023-04-24T07:45:23;14.67;;;8.73;;
13327;SDS011;6733;51.044;3.746;2023-04-24T07:47:51;15.00;;;8.90;;
13327;SDS011;6733;51.044;3.746;2023-04-24T07:50:17;18.33;;;8.63;;
13327;SDS011;6733;51.044;3.746;2023-04-24T07:52:44;19.83;;;8.30;;
13327;SDS011;6733;51.044;3.746;2023-04-24T07:55:10;12.90;;;7.93;;
13327;SDS011;6733;51.044;3.746;2023-04-24T07:57:36;16.53;;;8.13;;
13327;SDS011;6733;51.044;3.746;2023-04-24T08:00:03;14.27;;;7.17;;
13327;SDS011;6733;51.044;3.746;2023-04-24T08:02:31;15.37;;;8.77;;
13327;SDS011;6733;51.044;3.746;2023-04-24T08:04:57;15.60;;;7.33;;
13327;SDS011;6733;51.044;3.746;2023-04-24T08:07:23;15.10;;;8.23;;
13327;SDS011;6733;51.044;3.746;2023-04-24T08:09:49;12.47;;;7.23;;
13327;SDS011;6733;51.044;3.746;2023-04-24T08:12:15;11.93;;;6.30;;
13327;SDS011;6733;51.044;3.746;2023-04-24T08:14:42;12.73;;;6.97;;
13327;SDS011;6733;51.044;3.746;2023-04-24T08:17:08;16.87;;;7.33;;
13327;SDS011;6733;51.044;3.746;2023-04-24T08:19:34;15.40;;;7.03;;
13327;SDS011;6733;51.044;3.746;2023-04-24T08:22:00;13.27;;;8.03;;
13327;SDS011;6733;51.044;3.746;2023-04-24T08:24:26;15.67;;;7.60;;
13327;SDS011;6733;51.044;3.746;2023-04-24T08:26:52;16.23;;;6.33;;
13327;SDS011;6733;51.044;3.746;2023-04-24T08:29:19;12.60;;;6.23;;
13327;SDS011;6733;51.044;3.746;2023-04-24T08:31:46;12.40;;;6.30;;
13327;SDS011;6733;51.044;3.746;2023-04-24T08:34:12;12.67;;;6.03;;
13327;SDS011;6733;51.044;3.746;2023-04-24T08:36:38;11.23;;;5.50;;
13327;SDS011;6733;51.044;3.746;2023-04-24T08:39:06;8.07;;;4.73;;
13327;SDS011;6733;51.044;3.746;2023-04-24T08:41:33;11.03;;;4.43;;
13327;SDS011;6733;51.044;3.746;2023-04-24T08:44:00;8.63;;;4.77;;
13327;SDS011;6733;51.044;3.746;2023-04-24T08:46:27;14.47;;;5.53;;
13327;SDS011;6733;51.044;3.746;2023-04-24T08:48:55;12.33;;;5.07;;
13327;SDS011;6733;51.044;3.746;2023-04-24T08:51:23;8.10;;;4.63;;
13327;SDS011;6733;51.044;3.746;2023-04-24T08:53:53;10.60;;;4.83;;
13327;SDS011;6733;51.044;3.746;2023-04-24T08:56:20;11.30;;;4.80;;
13327;SDS011;6733;51.044;3.746;2023-04-24T08:58:50;12.40;;;5.70;;
13327;SDS011;6733;51.044;3.746;2023-04-24T09:01:17;8.70;;;5.20;;
13327;SDS011;6733;51.044;3.746;2023-04-24T09:03:46;9.20;;;5.13;;
13327;SDS011;6733;51.044;3.746;2023-04-24T09:06:14;11.13;;;5.63;;
13327;SDS011;6733;51.044;3.746;2023-04-24T09:08:43;9.87;;;5.90;;
13327;SDS011;6733;51.044;3.746;2023-04-24T09:11:10;8.67;;;5.53;;
13327;SDS011;6733;51.044;3.746;2023-04-24T09:13:37;10.57;;;5.33;;
13327;SDS011;6733;51.044;3.746;2023-04-24T09:16:04;8.60;;;5.40;;
13327;SDS011;6733;51.044;3.746;2023-04-24T09:18:31;9.60;;;5.33;;
13327;SDS011;6733;51.044;3.746;2023-04-24T09:20:57;10.47;;;5.70;;
13327;SDS011;6733;51.044;3.746;2023-04-24T09:23:26;13.80;;;5.47;;
13327;SDS011;6733;51.044;3.746;2023-04-24T09:25:57;7.93;;;4.23;;
13327;SDS011;6733;51.044;3.746;2023-04-24T09:28:35;6.73;;;4.63;;
13327;SDS011;6733;51.044;3.746;2023-04-24T09:31:11;11.93;;;4.97;;
13327;SDS011;6733;51.044;3.746;2023-04-24T09:33:40;10.10;;;5.23;;
13327;SDS011;6733;51.044;3.746;2023-04-24T09:36:08;8.13;;;5.47;;
13327;SDS011;6733;51.044;3.746;2023-04-24T09:38:36;9.30;;;5.00;;
13327;SDS011;6733;51.044;3.746;2023-04-24T09:41:05;9.70;;;5.43;;
13327;SDS011;6733;51.044;3.746;2023-04-24T09:43:32;8.27;;;5.67;;
13327;SDS011;6733;51.044;3.746;2023-04-24T09:46:00;8.30;;;5.27;;
13327;SDS011;6733;51.044;3.746;2023-04-24T09:48:32;9.07;;;5.50;;
13327;SDS011;6733;51.044;3.746;2023-04-24T09:51:00;9.63;;;5.30;;
13327;SDS011;6733;51.044;3.746;2023-04-24T09:53:29;8.57;;;5.33;;
13327;SDS011;6733;51.044;3.746;2023-04-24T09:56:01;7.97;;;5.10;;
13327;SDS011;6733;51.044;3.746;2023-04-24T09:58:32;8.20;;;4.80;;
13327;SDS011;6733;51.044;3.746;2023-04-24T10:01:01;9.27;;;5.83;;
13327;SDS011;6733;51.044;3.746;2023-04-24T10:03:30;14.10;;;5.37;;
13327;SDS011;6733;51.044;3.746;2023-04-24T10:05:58;9.23;;;4.60;;
13327;SDS011;6733;51.044;3.746;2023-04-24T10:08:25;8.50;;;4.87;;
13327;SDS011;6733;51.044;3.746;2023-04-24T10:10:52;8.00;;;5.30;;
13327;SDS011;6733;51.044;3.746;2023-04-24T10:13:18;12.60;;;4.87;;
13327;SDS011;6733;51.044;3.746;2023-04-24T10:15:45;10.17;;;4.87;;
13327;SDS011;6733;51.044;3.746;2023-04-24T10:18:13;9.70;;;4.63;;
13327;SDS011;6733;51.044;3.746;2023-04-24T10:20:41;8.90;;;4.93;;
13327;SDS011;6733;51.044;3.746;2023-04-24T10:23:07;6.93;;;4.93;;
13327;SDS011;6733;51.044;3.746;2023-04-24T10:25:34;7.30;;;4.40;;
13327;SDS011;6733;51.044;3.746;2023-04-24T10:28:02;6.00;;;4.60;;
13327;SDS011;6733;51.044;3.746;2023-04-24T10:30:30;10.17;;;5.37;;
13327;SDS011;6733;51.044;3.746;2023-04-24T10:33:03;8.40;;;4.30;;
13327;SDS011;6733;51.044;3.746;2023-04-24T10:35:31;6.03;;;4.57;;
13327;SDS011;6733;51.044;3.746;2023-04-24T10:38:03;7.17;;;4.27;;
13327;SDS011;6733;51.044;3.746;2023-04-24T10:40:34;5.57;;;4.60;;
13327;SDS011;6733;51.044;3.746;2023-04-24T10:43:02;7.00;;;4.93;;
13327;SDS011;6733;51.044;3.746;2023-04-24T10:45:33;8.73;;;4.43;;
13327;SDS011;6733;51.044;3.746;2023-04-24T10:48:07;7.57;;;4.97;;
13327;SDS011;6733;51.044;3.746;2023-04-24T10:50:56;8.03;;;4.47;;
13327;SDS011;6733;51.044;3.746;2023-04-24T10:53:24;7.60;;;4.47;;
13327;SDS011;6733;51.044;3.746;2023-04-24T10:58:40;6.43;;;4.47;;
13327;SDS011;6733;51.044;3.746;2023-04-24T11:01:27;8.80;;;4.77;;
13327;SDS011;6733;51.044;3.746;2023-04-24T11:03:58;8.37;;;4.73;;
13327;SDS011;6733;51.044;3.746;2023-04-24T11:06:32;9.20;;;4.30;;
13327;SDS011;6733;51.044;3.746;2023-04-24T11:09:02;8.80;;;4.53;;
13327;SDS011;6733;51.044;3.746;2023-04-24T11:11:33;7.90;;;4.77;;
13327;SDS011;6733;51.044;3.746;2023-04-24T11:14:01;8.27;;;4.73;;
13327;SDS011;6733;51.044;3.746;2023-04-24T11:21:32;5.40;;;4.17;;
13327;SDS011;6733;51.044;3.746;2023-04-24T11:27:13;8.53;;;3.93;;
13327;SDS011;6733;51.044;3.746;2023-04-24T11:37:33;6.67;;;4.20;;
13327;SDS011;6733;51.044;3.746;2023-04-24T11:40:04;6.23;;;4.33;;
13327;SDS011;6733;51.044;3.746;2023-04-24T11:42:36;8.17;;;3.80;;
13327;SDS011;6733;51.044;3.746;2023-04-24T11:45:22;5.43;;;3.63;;
13327;SDS011;6733;51.044;3.746;2023-04-24T11:47:49;4.97;;;3.30;;
13327;SDS011;6733;51.044;3.746;2023-04-24T11:50:17;7.17;;;3.60;;
13327;SDS011;6733;51.044;3.746;2023-04-24T11:52:45;9.47;;;3.90;;
13327;SDS011;6733;51.044;3.746;2023-04-24T11:57:45;8.97;;;3.73;;
13327;SDS011;6733;51.044;3.746;2023-04-24T12:00:19;5.30;;;3.13;;
13327;SDS011;6733;51.044;3.746;2023-04-24T12:02:46;4.20;;;3.10;;
13327;SDS011;6733;51.044;3.746;2023-04-24T12:05:19;4.77;;;3.20;;
13327;SDS011;6733;51.044;3.746;2023-04-24T12:07:49;6.00;;;3.30;;
13327;SDS011;6733;51.044;3.746;2023-04-24T12:10:23;8.13;;;3.83;;
13327;SDS011;6733;51.044;3.746;2023-04-24T12:12:50;4.40;;;3.70;;
13327;SDS011;6733;51.044;3.746;2023-04-24T12:15:18;6.50;;;3.00;;
13327;SDS011;6733;51.044;3.746;2023-04-24T12:17:45;6.33;;;3.23;;
13327;SDS011;6733;51.044;3.746;2023-04-24T12:20:12;6.87;;;4.00;;
13327;SDS011;6733;51.044;3.746;2023-04-24T12:22:46;5.70;;;3.37;;
13327;SDS011;6733;51.044;3.746;2023-04-24T12:25:17;5.03;;;3.30;;
13327;SDS011;6733;51.044;3.746;2023-04-24T12:27:44;11.10;;;3.80;;
13327;SDS011;6733;51.044;3.746;2023-04-24T12:30:15;6.83;;;3.40;;
13327;SDS011;6733;51.044;3.746;2023-04-24T12:32:43;4.47;;;3.17;;
13327;SDS011;6733;51.044;3.746;2023-04-24T12:35:11;5.17;;;2.90;;
13327;SDS011;6733;51.044;3.746;2023-04-24T12:37:37;5.93;;;2.77;;
13327;SDS011;6733;51.044;3.746;2023-04-24T12:42:33;7.20;;;3.10;;
13327;SDS011;6733;51.044;3.746;2023-04-24T12:45:02;4.87;;;2.70;;
13327;SDS011;6733;51.044;3.746;2023-04-24T12:47:29;3.47;;;2.57;;
13327;SDS011;6733;51.044;3.746;2023-04-24T12:49:56;7.40;;;2.70;;
13327;SDS011;6733;51.044;3.746;2023-04-24T12:52:22;5.53;;;2.63;;
13327;SDS011;6733;51.044;3.746;2023-04-24T12:54:50;5.50;;;2.60;;
13327;SDS011;6733;51.044;3.746;2023-04-24T12:57:18;5.57;;;2.60;;
13327;SDS011;6733;51.044;3.746;2023-04-24T12:59:44;6.43;;;2.57;;
13327;SDS011;6733;51.044;3.746;2023-04-24T13:02:10;4.87;;;2.23;;
13327;SDS011;6733;51.044;3.746;2023-04-24T13:04:37;4.70;;;2.43;;
13327;SDS011;6733;51.044;3.746;2023-04-24T13:07:04;5.60;;;2.37;;
13327;SDS011;6733;51.044;3.746;2023-04-24T13:09:31;5.53;;;2.70;;
13327;SDS011;6733;51.044;3.746;2023-04-24T13:11:57;3.17;;;2.20;;
13327;SDS011;6733;51.044;3.746;2023-04-24T13:14:23;5.00;;;2.40;;
13327;SDS011;6733;51.044;3.746;2023-04-24T13:16:49;4.10;;;1.90;;
13327;SDS011;6733;51.044;3.746;2023-04-24T13:19:16;2.93;;;2.13;;
13327;SDS011;6733;51.044;3.746;2023-04-24T13:21:42;3.13;;;2.30;;
13327;SDS011;6733;51.044;3.746;2023-04-24T13:24:08;4.23;;;2.23;;
13327;SDS011;6733;51.044;3.746;2023-04-24T13:26:35;3.10;;;2.27;;
13327;SDS011;6733;51.044;3.746;2023-04-24T13:29:01;4.47;;;2.03;;
13327;SDS011;6733;51.044;3.746;2023-04-24T13:31:28;5.03;;;2.10;;
13327;SDS011;6733;51.044;3.746;2023-04-24T13:33:55;6.80;;;2.00;;
13327;SDS011;6733;51.044;3.746;2023-04-24T13:36:21;3.37;;;1.90;;
13327;SDS011;6733;51.044;3.746;2023-04-24T13:38:47;4.00;;;2.20;;
13327;SDS011;6733;51.044;3.746;2023-04-24T13:41:13;4.47;;;2.33;;
13327;SDS011;6733;51.044;3.746;2023-04-24T13:43:39;3.93;;;2.00;;
13327;SDS011;6733;51.044;3.746;2023-04-24T13:46:08;2.90;;;2.00;;
13327;SDS011;6733;51.044;3.746;2023-04-24T13:48:34;5.30;;;2.13;;
13327;SDS011;6733;51.044;3.746;2023-04-24T13:51:00;7.13;;;2.30;;
13327;SDS011;6733;51.044;3.746;2023-04-24T13:53:26;4.00;;;2.30;;
13327;SDS011;6733;51.044;3.746;2023-04-24T13:55:52;3.17;;;1.80;;
13327;SDS011;6733;51.044;3.746;2023-04-24T13:58:19;5.37;;;1.93;;
13327;SDS011;6733;51.044;3.746;2023-04-24T14:00:46;3.83;;;2.20;;
13327;SDS011;6733;51.044;3.746;2023-04-24T14:03:12;4.13;;;1.80;;
13327;SDS011;6733;51.044;3.746;2023-04-24T14:05:38;5.00;;;1.90;;
13327;SDS011;6733;51.044;3.746;2023-04-24T14:08:05;6.83;;;2.00;;
13327;SDS011;6733;51.044;3.746;2023-04-24T14:10:31;3.20;;;1.90;;
13327;SDS011;6733;51.044;3.746;2023-04-24T14:12:57;2.33;;;1.70;;
13327;SDS011;6733;51.044;3.746;2023-04-24T14:15:24;2.33;;;1.87;;
13327;SDS011;6733;51.044;3.746;2023-04-24T14:17:50;3.20;;;2.03;;
13327;SDS011;6733;51.044;3.746;2023-04-24T14:20:16;2.00;;;1.80;;
13327;SDS011;6733;51.044;3.746;2023-04-24T14:22:42;2.50;;;1.77;;
13327;SDS011;6733;51.044;3.746;2023-04-24T14:25:08;2.83;;;1.70;;
13327;SDS011;6733;51.044;3.746;2023-04-24T14:27:35;3.77;;;1.87;;
13327;SDS011;6733;51.044;3.746;2023-04-24T14:30:01;3.97;;;2.10;;
13327;SDS011;6733;51.044;3.746;2023-04-24T14:32:28;3.73;;;1.97;;
13327;SDS011;6733;51.044;3.746;2023-04-24T14:34:55;2.70;;;1.80;;
13327;SDS011;6733;51.044;3.746;2023-04-24T14:37:22;3.63;;;2.23;;
13327;SDS011;6733;51.044;3.746;2023-04-24T14:39:48;5.23;;;2.00;;
13327;SDS011;6733;51.044;3.746;2023-04-24T14:42:14;2.50;;;2.30;;
13327;SDS011;6733;51.044;3.746;2023-04-24T14:44:42;3.70;;;1.97;;
13327;SDS011;6733;51.044;3.746;2023-04-24T14:47:08;5.67;;;2.40;;
13327;SDS011;6733;51.044;3.746;2023-04-24T14:49:34;3.67;;;1.90;;
13327;SDS011;6733;51.044;3.746;2023-04-24T14:52:00;2.50;;;1.77;;
13327;SDS011;6733;51.044;3.746;2023-04-24T14:54:28;4.70;;;1.90;;
13327;SDS011;6733;51.044;3.746;2023-04-24T14:56:54;3.03;;;2.00;;
13327;SDS011;6733;51.044;3.746;2023-04-24T14:59:22;3.80;;;2.43;;
13327;SDS011;6733;51.044;3.746;2023-04-24T15:01:48;2.83;;;2.20;;
13327;SDS011;6733;51.044;3.746;2023-04-24T15:04:16;3.90;;;2.33;;
13327;SDS011;6733;51.044;3.746;2023-04-24T15:06:42;5.57;;;2.50;;
13327;SDS011;6733;51.044;3.746;2023-04-24T15:09:08;6.93;;;2.23;;
13327;SDS011;6733;51.044;3.746;2023-04-24T15:11:35;5.03;;;2.10;;
13327;SDS011;6733;51.044;3.746;2023-04-24T15:14:02;2.70;;;2.17;;
13327;SDS011;6733;51.044;3.746;2023-04-24T15:16:28;4.63;;;2.30;;
13327;SDS011;6733;51.044;3.746;2023-04-24T15:18:54;4.60;;;2.27;;
13327;SDS011;6733;51.044;3.746;2023-04-24T15:21:22;4.17;;;2.40;;
13327;SDS011;6733;51.044;3.746;2023-04-24T15:23:48;3.80;;;2.50;;
13327;SDS011;6733;51.044;3.746;2023-04-24T15:26:15;4.07;;;2.30;;
13327;SDS011;6733;51.044;3.746;2023-04-24T15:28:41;2.70;;;2.30;;
13327;SDS011;6733;51.044;3.746;2023-04-24T15:31:07;3.23;;;2.37;;
13327;SDS011;6733;51.044;3.746;2023-04-24T15:33:34;3.70;;;2.00;;